This is the latest recevied weather packets stored in our database for station/object K4QXN. If no packets are shown the sender has not sent any weather packets the latest 1 day(s).
| Time | Temp. | Humidity | Pressure | Rain* | Wind** | Luminosity | Snow |
|---|---|---|---|---|---|---|---|
| 1778042070 | 18.33° C | 71% | 1012.5 hPa | 0 mm | - | - | - |
| 1778041768 | 18.33° C | 70% | 1012.5 hPa | 0 mm | - | - | - |
| 1778041466 | 18.33° C | 70% | 1012.5 hPa | 0 mm | - | - | - |
| 1778041165 | 18.33° C | 70% | 1012.5 hPa | 0 mm | - | - | - |
| 1778040863 | 18.33° C | 69% | 1012.5 hPa | 0 mm | - | - | - |
| 1778040561 | 18.33° C | 69% | 1012.5 hPa | 0 mm | - | - | - |
| 1778040259 | 18.89° C | 68% | 1012.5 hPa | 0 mm | - | - | - |
| 1778039958 | 18.89° C | 67% | 1012.1 hPa | 0 mm | - | - | - |
| 1778039656 | 18.89° C | 67% | 1012.5 hPa | 0 mm | - | - | - |
| 1778039354 | 18.89° C | 66% | 1012.5 hPa | 0 mm | - | - | - |
| 1778039053 | 18.89° C | 66% | 1012.5 hPa | 0 mm | - | - | - |
| 1778038751 | 18.89° C | 66% | 1012.5 hPa | 0 mm | - | - | - |
| 1778038449 | 18.89° C | 65% | 1012.1 hPa | 0 mm | - | - | - |
| 1778038147 | 18.33° C | 66% | 1012.1 hPa | 0 mm | - | - | - |
| 1778037846 | 17.22° C | 68% | 1012.5 hPa | 0 mm | - | - | - |
| 1778036941 | 16.67° C | 68% | 1012.1 hPa | 0 mm | - | - | - |
| 1778036639 | 16.67° C | 69% | 1012.1 hPa | 0 mm | - | - | - |
| 1778036036 | 17.22° C | 67% | 1011.8 hPa | 0 mm | - | - | - |
| 1778035734 | 17.22° C | 67% | 1011.8 hPa | 0 mm | - | - | - |
| 1778035433 | 17.78° C | 67% | 1011.8 hPa | 0 mm | - | - | - |
| 1778035131 | 17.22° C | 70% | 1011.8 hPa | 0 mm | - | - | - |
| 1778034829 | 16.67° C | 71% | 1012.1 hPa | 0 mm | - | - | - |
| 1778034226 | 16.11° C | 72% | 1012.1 hPa | 0 mm | - | - | - |
| 1778033925 | 16.11° C | 72% | 1011.8 hPa | 0 mm | - | - | - |
| 1778033623 | 16.11° C | 71% | 1011.8 hPa | 0 mm | - | - | - |
* Rain latest hour (hover to see other rain measurements)
** Current wind speed in m/s (hover to see current wind gust speed)